Time;durP1;ratioP1;P1;durP2;ratioP2;P2;SDS_P1;SDS_P2;PMS_P1;PMS_P2;Temp;Humidity;BMP_temperature;BMP_pressure;BME280_temperature;BME280_humidity;BME280_pressure;Samples;Min_cycle;Max_cycle;Signal;HPM_P1;HPM_P2
2022/05/28 00:00:12;;;;;;;4.30;0.88;;;;;;;17.68;51.21;100035.16;5073919;28;20454;-75
2022/05/28 00:02:41;;;;;;;3.53;0.70;;;;;;;17.62;50.74;100032.16;5073070;28;20056;-75
2022/05/28 00:05:09;;;;;;;1.88;1.00;;;;;;;17.56;51.58;100028.19;5073839;28;20485;-75
2022/05/28 00:07:38;;;;;;;1.65;0.80;;;;;;;17.63;50.73;100032.03;5074021;28;20040;-74
2022/05/28 00:10:07;;;;;;;1.20;0.80;;;;;;;17.41;51.67;100027.78;5073859;28;20127;-75
2022/05/28 00:12:37;;;;;;;1.63;0.80;;;;;;;17.30;52.05;100024.38;5073945;28;20117;-75
2022/05/28 00:15:06;;;;;;;1.38;0.85;;;;;;;17.40;51.98;100030.63;5073641;28;20123;-75
2022/05/28 00:17:34;;;;;;;2.35;0.85;;;;;;;17.36;51.89;100019.25;5073573;28;20045;-75
2022/05/28 00:20:04;;;;;;;1.88;1.10;;;;;;;17.40;51.90;100015.28;5072191;28;20082;-76
2022/05/28 00:22:36;;;;;;;1.70;0.90;;;;;;;17.35;51.63;100014.00;5073548;28;20045;-75
2022/05/28 00:25:05;;;;;;;1.42;0.90;;;;;;;17.14;52.17;100012.28;5073498;28;20040;-74
2022/05/28 00:27:33;;;;;;;1.90;0.82;;;;;;;17.06;52.44;100000.50;5073692;28;20040;-73
2022/05/28 00:30:03;;;;;;;2.28;0.77;;;;;;;17.03;52.42;100015.09;5073444;28;20044;-74
2022/05/28 00:32:32;;;;;;;1.60;0.90;;;;;;;17.03;52.10;100011.56;5073694;28;20068;-75
2022/05/28 00:35:00;;;;;;;1.65;0.80;;;;;;;17.05;51.88;100010.44;5073528;28;20075;-77
2022/05/28 00:37:30;;;;;;;1.67;0.90;;;;;;;16.92;51.73;100009.00;5073363;28;20055;-75
2022/05/28 00:39:58;;;;;;;1.77;0.90;;;;;;;16.99;51.85;100020.94;5071949;28;20493;-75
2022/05/28 00:42:29;;;;;;;1.55;0.80;;;;;;;16.90;53.65;100036.06;5073856;28;20098;-75
2022/05/28 00:44:57;;;;;;;3.50;0.98;;;;;;;16.85;54.98;100043.72;5073528;28;20051;-75
2022/05/28 00:47:27;;;;;;;3.95;1.00;;;;;;;16.93;55.50;100048.41;5073490;28;20386;-75
2022/05/28 00:49:56;;;;;;;1.30;0.70;;;;;;;16.90;56.09;100044.16;5073561;28;20052;-75
2022/05/28 00:52:26;;;;;;;1.40;0.80;;;;;;;16.96;55.62;100031.97;5072050;28;20454;-75
2022/05/28 00:54:55;;;;;;;6.28;1.02;;;;;;;16.84;56.32;100044.69;5073492;28;20131;-75
2022/05/28 00:57:24;;;;;;;2.13;0.90;;;;;;;16.74;55.67;100035.75;5073118;28;20131;-75
2022/05/28 00:59:54;;;;;;;2.55;0.95;;;;;;;16.76;56.22;100041.84;5073299;28;20555;-74
2022/05/28 01:02:39;;;;;;;2.28;0.85;;;;;;;16.74;55.95;100041.13;5073059;28;20045;-75
2022/05/28 01:05:14;;;;;;;2.58;1.00;;;;;;;16.73;55.60;100034.03;5073139;28;20102;-75
2022/05/28 01:08:00;;;;;;;1.70;0.95;;;;;;;16.60;55.37;100028.88;5073207;28;20127;-75
2022/05/28 01:10:39;;;;;;;1.27;0.70;;;;;;;16.50;55.38;100019.88;5074304;28;20436;-75
2022/05/28 01:13:12;;;;;;;1.85;1.08;;;;;;;16.63;54.78;100011.56;5079711;28;20044;-75
2022/05/28 01:15:42;;;;;;;;;;;;;;;16.58;54.90;100006.59;5080308;28;20040;-75
2022/05/28 01:18:17;;;;;;;1.75;1.00;;;;;;;16.68;54.96;100001.22;5079622;28;19921;-75
2022/05/28 01:20:51;;;;;;;2.58;1.00;;;;;;;16.70;54.97;99999.31;5079631;28;20047;-75
2022/05/28 01:23:37;;;;;;;4.07;1.00;;;;;;;16.62;55.11;100002.66;5079593;28;20489;-75
2022/05/28 01:26:14;;;;;;;2.38;1.10;;;;;;;16.43;55.92;99987.28;5079512;28;20036;-75
2022/05/28 01:28:52;;;;;;;2.58;1.25;;;;;;;16.39;56.11;99985.81;5079896;28;20093;-75
2022/05/28 01:31:24;;;;;;;2.47;1.30;;;;;;;16.48;56.12;99973.41;5079183;28;20036;-75
2022/05/28 01:33:54;;;;;;;2.05;1.00;;;;;;;16.36;56.45;99986.09;5079757;28;20420;-75
2022/05/28 01:36:24;;;;;;;2.60;0.90;;;;;;;16.35;56.68;99973.63;5079188;28;20440;-74
2022/05/28 01:38:54;;;;;;;3.08;1.10;;;;;;;16.37;56.65;99971.66;5079563;28;20044;-75
2022/05/28 01:41:24;;;;;;;2.47;1.25;;;;;;;16.42;56.44;99966.72;5079106;28;20123;-75
2022/05/28 01:43:55;;;;;;;2.28;1.17;;;;;;;16.38;57.05;99970.66;5079565;28;20448;-75
2022/05/28 01:46:27;;;;;;;2.03;1.10;;;;;;;16.32;57.30;99979.31;5079017;28;20045;-75
2022/05/28 01:48:57;;;;;;;1.67;1.00;;;;;;;16.07;58.59;99979.75;5079619;28;20045;-75
2022/05/28 01:51:36;;;;;;;2.38;1.13;;;;;;;15.99;59.11;99981.25;5079013;28;20087;-76
2022/05/28 01:54:11;;;;;;;1.85;1.10;;;;;;;16.05;59.24;99977.19;5079365;28;20044;-75
2022/05/28 01:56:43;;;;;;;2.33;1.08;;;;;;;16.03;59.69;99985.41;5079006;28;20044;-73
2022/05/28 01:59:14;;;;;;;1.67;1.02;;;;;;;15.98;60.28;100002.91;5079293;28;20041;-74
2022/05/28 02:01:44;;;;;;;1.85;1.02;;;;;;;15.99;60.29;100008.16;5079141;28;20045;-75
2022/05/28 02:04:13;;;;;;;1.55;0.80;;;;;;;15.94;59.95;100014.94;5078844;28;20040;-73
2022/05/28 02:06:42;;;;;;;2.55;1.02;;;;;;;16.03;60.58;100022.22;5079285;28;20042;-75
2022/05/28 02:09:15;;;;;;;1.67;0.93;;;;;;;16.20;59.39;100024.28;5079197;28;20045;-76
2022/05/28 02:11:53;;;;;;;1.83;1.00;;;;;;;15.99;60.63;100021.59;5079209;28;20078;-73
2022/05/28 02:14:28;;;;;;;1.40;0.95;;;;;;;15.94;60.95;100031.06;5079115;28;20273;-74
2022/05/28 02:17:06;;;;;;;3.90;1.15;;;;;;;16.09;60.62;100026.19;5079325;28;20051;-73
2022/05/28 02:19:44;;;;;;;1.65;1.10;;;;;;;16.08;60.69;100021.81;5079169;28;20474;-76
2022/05/28 02:22:22;;;;;;;6.10;1.20;;;;;;;15.98;60.88;100017.22;5077385;28;20120;-73
2022/05/28 02:24:56;;;;;;;2.53;1.00;;;;;;;16.09;60.96;100012.75;5076145;28;20041;-75
2022/05/28 02:27:27;;;;;;;2.45;1.10;;;;;;;16.06;61.04;100021.09;5075817;28;20044;-73
2022/05/28 02:30:00;;;;;;;1.35;0.98;;;;;;;16.02;61.30;100024.06;5076046;28;20045;-73
2022/05/28 02:32:28;;;;;;;2.47;1.10;;;;;;;16.17;60.68;100018.31;5075521;28;20309;-75
2022/05/28 02:34:56;;;;;;;2.95;1.08;;;;;;;16.08;61.21;100016.41;5075879;28;20037;-72
2022/05/28 02:37:29;;;;;;;3.30;1.30;;;;;;;16.05;61.25;100025.63;5074505;28;20135;-75
2022/05/28 02:39:58;;;;;;;2.78;1.25;;;;;;;15.95;61.77;100022.03;5075643;28;20489;-73
2022/05/28 02:42:26;;;;;;;2.83;1.25;;;;;;;15.97;62.20;100028.13;5075517;28;20040;-75
2022/05/28 02:44:56;;;;;;;3.45;1.42;;;;;;;15.94;62.14;100037.31;5075661;28;20090;-75
2022/05/28 02:47:24;;;;;;;2.03;1.20;;;;;;;15.96;63.03;100046.09;5075323;28;20086;-74
2022/05/28 02:49:53;;;;;;;4.57;1.30;;;;;;;15.97;62.70;100055.88;5075540;28;20485;-75
2022/05/28 02:52:21;;;;;;;4.15;1.25;;;;;;;16.11;62.22;100051.97;5073980;28;20094;-75
2022/05/28 02:54:50;;;;;;;2.75;1.30;;;;;;;15.96;62.98;100048.78;5075376;28;20044;-75
2022/05/28 02:57:18;;;;;;;2.53;1.05;;;;;;;15.94;63.19;100049.91;5073695;28;20391;-75
2022/05/28 02:59:46;;;;;;;3.63;1.35;;;;;;;15.89;63.49;100058.34;5075401;28;20079;-75
2022/05/28 03:02:16;;;;;;;1.85;1.00;;;;;;;15.86;63.75;100058.63;5075103;28;20098;-75
2022/05/28 03:04:44;;;;;;;4.00;1.52;;;;;;;15.92;63.34;100058.09;5075140;28;20500;-73
2022/05/28 03:07:12;;;;;;;1.92;1.35;;;;;;;15.92;63.23;100051.84;5073656;28;20490;-75
2022/05/28 03:09:40;;;;;;;3.33;1.20;;;;;;;15.85;63.85;100046.16;5075103;28;20062;-75
2022/05/28 03:12:09;;;;;;;2.15;1.40;;;;;;;15.67;64.70;100032.44;5074830;28;20486;-75
2022/05/28 03:14:37;;;;;;;2.28;1.25;;;;;;;15.70;65.02;100025.94;5074910;28;20051;-75
2022/05/28 03:17:06;;;;;;;2.33;1.10;;;;;;;15.70;65.04;100026.78;5075115;28;20079;-74
2022/05/28 03:19:35;;;;;;;3.25;1.40;;;;;;;15.66;65.20;100024.50;5074730;28;20045;-75
2022/05/28 03:22:04;;;;;;;4.32;1.60;;;;;;;15.71;65.19;100023.13;5074665;28;20040;-75
2022/05/28 03:24:33;;;;;;;3.83;1.75;;;;;;;15.72;65.22;100013.22;5074392;28;20107;-73
2022/05/28 03:27:01;;;;;;;2.45;1.33;;;;;;;15.78;64.84;100023.47;5074719;28;20037;-73
2022/05/28 03:29:29;;;;;;;2.00;1.20;;;;;;;15.76;64.76;100029.97;5074583;28;20052;-73
2022/05/28 03:31:57;;;;;;;3.58;1.20;;;;;;;15.91;63.76;100037.56;5074747;28;20389;-74
2022/05/28 03:34:26;;;;;;;2.47;1.33;;;;;;;15.86;64.25;100037.09;5074151;28;20044;-73
2022/05/28 03:36:55;;;;;;;3.15;1.20;;;;;;;15.95;64.07;100030.09;5074665;28;20064;-72
2022/05/28 03:39:23;;;;;;;2.78;1.30;;;;;;;15.92;64.47;100030.31;5073952;28;20044;-76
2022/05/28 03:41:52;;;;;;;3.30;1.33;;;;;;;15.94;64.46;100028.38;5074630;28;20119;-73
2022/05/28 03:44:20;;;;;;;2.80;1.20;;;;;;;15.90;64.40;100016.16;5074225;28;20055;-74
2022/05/28 03:46:48;;;;;;;2.40;1.40;;;;;;;15.79;64.64;100018.94;5074392;28;20083;-75
2022/05/28 03:49:22;;;;;;;2.13;1.40;;;;;;;15.65;65.34;100025.50;5074144;28;20072;-73
2022/05/28 03:51:50;;;;;;;2.83;1.50;;;;;;;15.66;65.81;100025.38;5074477;28;20119;-74
2022/05/28 03:54:20;;;;;;;2.90;1.50;;;;;;;15.67;66.06;100020.84;5074109;28;20466;-75
2022/05/28 03:56:50;;;;;;;2.90;1.25;;;;;;;15.53;66.96;100034.53;5074243;28;20458;-74
2022/05/28 03:59:19;;;;;;;2.55;1.50;;;;;;;15.54;67.25;100025.50;5073834;28;20115;-75
2022/05/28 04:01:47;;;;;;;3.10;1.60;;;;;;;15.66;66.96;100019.97;5074264;28;20048;-75
2022/05/28 04:04:16;;;;;;;4.55;1.33;;;;;;;15.68;66.92;100026.06;5073929;28;20033;-75
2022/05/28 04:06:44;;;;;;;2.65;1.50;;;;;;;15.65;67.07;100028.19;5074006;28;20152;-74
2022/05/28 04:09:12;;;;;;;1.50;1.15;;;;;;;15.75;66.29;100031.78;5073763;28;20390;-75
2022/05/28 04:11:44;;;;;;;2.13;1.30;;;;;;;15.64;66.83;100027.34;5073939;28;20044;-75
2022/05/28 04:14:13;;;;;;;4.07;1.45;;;;;;;15.68;66.69;100027.91;5074012;28;20044;-75
2022/05/28 04:16:41;;;;;;;2.47;1.50;;;;;;;15.70;66.87;100023.25;5073900;28;20044;-75
2022/05/28 04:19:10;;;;;;;3.47;1.50;;;;;;;15.64;66.93;100024.66;5073849;28;20047;-74
2022/05/28 04:21:38;;;;;;;4.25;1.40;;;;;;;15.65;66.99;100034.41;5073609;28;20428;-73
2022/05/28 04:24:07;;;;;;;5.95;1.98;;;;;;;15.75;67.00;100029.09;5073389;28;20052;-75
2022/05/28 04:26:35;;;;;;;4.28;1.60;;;;;;;15.93;66.40;100027.53;5073427;28;20052;-75
2022/05/28 04:29:05;;;;;;;4.03;1.67;;;;;;;16.02;65.92;100033.97;5073649;28;20045;-75
2022/05/28 04:31:34;;;;;;;4.07;1.98;;;;;;;16.06;65.61;100019.25;5073255;28;20049;-75
2022/05/28 04:34:02;;;;;;;6.05;2.35;;;;;;;16.10;65.85;100011.75;5073607;28;20040;-75
2022/05/28 04:36:30;;;;;;;6.82;1.95;;;;;;;16.16;65.16;100032.75;5073361;28;20420;-75
2022/05/28 04:38:58;;;;;;;3.75;1.98;;;;;;;16.18;65.57;100028.94;5073601;28;20119;-75
2022/05/28 04:41:27;;;;;;;4.30;2.17;;;;;;;16.34;64.70;100035.69;5073317;28;20406;-75
2022/05/28 04:43:55;;;;;;;4.80;2.15;;;;;;;16.37;64.71;100028.19;5073479;28;20049;-75
2022/05/28 04:46:25;;;;;;;4.00;1.90;;;;;;;16.22;64.84;100033.09;5072606;28;20049;-75
2022/05/28 04:48:53;;;;;;;4.00;2.00;;;;;;;16.17;64.92;100037.16;5073011;28;20045;-74
2022/05/28 04:51:21;;;;;;;3.13;1.60;;;;;;;16.25;64.61;100045.41;5073130;28;20413;-76
2022/05/28 04:53:49;;;;;;;3.03;1.70;;;;;;;16.20;64.44;100048.50;5073068;28;20044;-74
2022/05/28 04:56:17;;;;;;;3.97;1.75;;;;;;;16.25;64.59;100051.66;5073401;28;20080;-75
2022/05/28 04:58:46;;;;;;;3.03;1.80;;;;;;;16.28;64.39;100061.28;5073293;28;20068;-75
2022/05/28 05:01:15;;;;;;;2.92;1.50;;;;;;;16.35;63.98;100040.09;5073053;28;20123;-75
2022/05/28 05:03:45;;;;;;;3.10;1.55;;;;;;;16.34;64.13;100052.69;5073240;28;20041;-73
2022/05/28 05:06:14;;;;;;;2.35;1.45;;;;;;;16.24;63.88;100057.16;5073312;28;20051;-74
2022/05/28 05:08:43;;;;;;;3.60;1.52;;;;;;;16.18;64.50;100042.41;5073204;28;20044;-75
2022/05/28 05:11:15;;;;;;;3.80;1.70;;;;;;;16.31;64.29;100037.66;5071886;28;20056;-74
2022/05/28 05:13:43;;;;;;;3.13;1.50;;;;;;;16.32;63.55;100041.22;5073165;28;20036;-75
2022/05/28 05:16:14;;;;;;;4.22;1.60;;;;;;;16.27;63.79;100051.50;5072873;28;20123;-75
2022/05/28 05:18:43;;;;;;;5.45;1.67;;;;;;;16.45;63.09;100055.28;5072984;28;20106;-73
2022/05/28 05:21:12;;;;;;;2.30;1.35;;;;;;;16.56;62.11;100057.88;5073080;28;20049;-74
2022/05/28 05:23:41;;;;;;;5.05;1.83;;;;;;;16.73;62.03;100052.88;5072850;28;20051;-73
2022/05/28 05:26:10;;;;;;;3.15;1.70;;;;;;;16.82;61.26;100052.91;5073110;28;20036;-75
2022/05/28 05:28:39;;;;;;;4.80;1.50;;;;;;;16.63;62.07;100047.44;5072728;28;20102;-73
2022/05/28 05:31:12;;;;;;;3.03;1.60;;;;;;;16.65;62.09;100050.00;5072155;28;20063;-75
2022/05/28 05:33:40;;;;;;;2.85;1.50;;;;;;;16.61;62.16;100049.41;5072716;28;20041;-75
2022/05/28 05:36:09;;;;;;;6.15;1.58;;;;;;;16.67;62.03;100056.94;5072677;28;20091;-74
2022/05/28 05:38:39;;;;;;;3.15;1.65;;;;;;;16.49;62.33;100039.72;5072529;28;20047;-75
2022/05/28 05:41:07;;;;;;;2.85;1.60;;;;;;;16.56;62.35;100048.97;5073038;28;20040;-75
2022/05/28 05:43:36;;;;;;;3.40;1.73;;;;;;;16.67;61.85;100054.25;5072315;28;20044;-75
2022/05/28 05:46:04;;;;;;;5.93;2.30;;;;;;;16.70;62.17;100054.03;5072850;28;20044;-75
2022/05/28 05:48:33;;;;;;;2.63;1.65;;;;;;;16.77;61.21;100048.91;5072137;28;20071;-75
2022/05/28 05:51:09;;;;;;;3.15;1.52;;;;;;;16.77;61.88;100044.38;5071565;28;20063;-75
2022/05/28 05:53:39;;;;;;;3.78;2.00;;;;;;;16.79;61.58;100057.72;5071514;28;20060;-75
2022/05/28 05:56:08;;;;;;;3.25;1.70;;;;;;;16.82;60.94;100052.91;5072358;28;20053;-75
2022/05/28 05:58:36;;;;;;;3.70;2.17;;;;;;;17.07;60.50;100048.84;5075549;28;20045;-75
2022/05/28 06:01:06;;;;;;;3.63;1.40;;;;;;;16.96;59.21;100050.81;5092025;28;20098;-74
2022/05/28 06:03:34;;;;;;;2.75;1.55;;;;;;;17.24;58.94;100043.78;5075924;28;20397;-75
2022/05/28 06:06:04;;;;;;;3.28;1.73;;;;;;;17.41;57.46;100037.72;5076471;28;20119;-74
2022/05/28 06:08:33;;;;;;;4.75;1.52;;;;;;;17.56;57.08;100036.28;5075941;28;20131;-75
2022/05/28 06:11:02;;;;;;;2.70;1.60;;;;;;;17.71;56.22;100028.66;5075944;28;20131;-75
2022/05/28 06:13:31;;;;;;;3.63;1.70;;;;;;;17.87;54.80;100033.47;5076047;28;20418;-75
2022/05/28 06:15:59;;;;;;;4.68;1.90;;;;;;;17.86;54.28;100031.78;5076297;28;20411;-75
2022/05/28 06:18:27;;;;;;;4.60;1.60;;;;;;;17.66;54.65;100029.06;5075933;28;20037;-75
2022/05/28 06:20:56;;;;;;;3.13;1.50;;;;;;;18.06;53.08;100033.44;5076035;28;20434;-75
2022/05/28 06:23:24;;;;;;;4.20;1.50;;;;;;;18.23;52.60;100035.34;5075776;28;20041;-75
2022/05/28 06:25:52;;;;;;;4.95;1.67;;;;;;;18.23;52.09;100038.06;5074532;28;20044;-74
2022/05/28 06:28:22;;;;;;;3.42;1.50;;;;;;;19.07;49.24;100046.13;5074571;28;20127;-74
2022/05/28 06:30:51;;;;;;;2.42;1.40;;;;;;;20.29;45.71;100028.28;5075917;28;20043;-73
2022/05/28 06:33:19;;;;;;;6.47;1.58;;;;;;;19.77;47.09;100023.81;5074469;28;20132;-73
2022/05/28 06:35:48;;;;;;;3.10;1.35;;;;;;;19.16;47.98;100022.72;5075549;28;20052;-73
2022/05/28 06:38:16;;;;;;;4.88;1.60;;;;;;;19.13;45.51;100031.16;5075371;28;20545;-74
2022/05/28 06:40:44;;;;;;;5.28;1.70;;;;;;;19.16;46.31;100038.94;5075795;28;20056;-75
2022/05/28 06:43:13;;;;;;;4.72;1.63;;;;;;;19.39;46.08;100039.34;5075639;28;20068;-75
2022/05/28 06:45:42;;;;;;;5.13;1.63;;;;;;;19.23;47.31;100045.44;5075255;28;20045;-75
2022/05/28 06:48:11;;;;;;;4.68;1.60;;;;;;;18.90;46.38;100032.56;5075400;28;20048;-74
2022/05/28 06:53:27;;;;;;;4.70;1.55;;;;;;;19.00;45.23;100044.16;5075055;28;20037;-75
2022/05/28 06:55:55;;;;;;;5.10;1.48;;;;;;;19.37;43.95;100034.09;5075360;28;20600;-73
2022/05/28 06:58:23;;;;;;;3.95;1.58;;;;;;;19.61;44.53;100040.78;5075375;28;20429;-73
2022/05/28 07:00:53;;;;;;;5.80;1.60;;;;;;;19.42;45.19;100039.91;5075289;28;20049;-75
2022/05/28 07:03:24;;;;;;;4.47;1.63;;;;;;;19.39;45.76;100029.38;5075119;28;20049;-73
2022/05/28 07:05:53;;;;;;;3.72;1.73;;;;;;;19.12;47.27;100024.03;5075335;28;20040;-73
2022/05/28 07:08:21;;;;;;;5.50;1.83;;;;;;;18.98;47.03;100040.75;5074423;28;20040;-73
2022/05/28 07:10:52;;;;;;;5.18;1.80;;;;;;;18.99;45.33;100048.72;5074169;28;20474;-73
2022/05/28 07:13:22;;;;;;;4.35;1.88;;;;;;;18.85;45.39;100047.38;5073819;28;20551;-73
2022/05/28 07:15:52;;;;;;;6.25;1.60;;;;;;;18.74;41.29;100044.88;5074209;28;20098;-74
2022/05/28 07:18:22;;;;;;;4.25;1.40;;;;;;;18.69;39.53;100052.56;5074390;28;20040;-73
2022/05/28 07:20:51;;;;;;;5.32;1.77;;;;;;;18.55;39.34;100044.94;5074813;28;20079;-75
2022/05/28 07:23:22;;;;;;;3.75;1.50;;;;;;;18.82;39.06;100053.09;5073592;28;20040;-74
2022/05/28 07:25:53;;;;;;;4.13;1.70;;;;;;;18.71;39.33;100047.88;5074636;28;20119;-75
2022/05/28 07:28:27;;;;;;;5.57;1.80;;;;;;;18.72;38.81;100057.69;5074744;28;20044;-75
2022/05/28 07:30:58;;;;;;;4.82;1.77;;;;;;;18.91;38.89;100064.84;5074102;28;20493;-75
2022/05/28 07:33:29;;;;;;;6.65;2.05;;;;;;;18.74;39.52;100055.69;5074701;28;20454;-75
2022/05/28 07:35:59;;;;;;;4.13;1.50;;;;;;;19.09;38.80;100064.88;5074826;28;20082;-75
2022/05/28 07:38:28;;;;;;;4.72;1.67;;;;;;;18.87;39.56;100068.84;5074551;28;20040;-75
2022/05/28 07:40:57;;;;;;;4.82;1.52;;;;;;;19.00;38.81;100074.75;5074509;28;20136;-74
2022/05/28 07:43:25;;;;;;;4.35;1.58;;;;;;;18.79;40.69;100068.75;5074059;28;20440;-75
2022/05/28 07:45:53;;;;;;;3.17;1.50;;;;;;;19.29;40.27;100076.41;5074155;28;20456;-74
2022/05/28 07:48:24;;;;;;;3.75;1.83;;;;;;;19.35;40.00;100073.97;5074318;28;20071;-74
2022/05/28 07:50:53;;;;;;;5.28;1.70;;;;;;;19.18;39.44;100072.06;5072487;28;20409;-74
2022/05/28 07:53:22;;;;;;;3.40;1.55;;;;;;;19.37;40.02;100074.66;5074208;28;20048;-73
2022/05/28 07:55:50;;;;;;;4.90;1.90;;;;;;;19.51;39.75;100072.44;5073556;28;20057;-73
2022/05/28 07:58:20;;;;;;;5.72;2.10;;;;;;;19.69;39.77;100078.75;5072787;28;20044;-73
2022/05/28 08:00:52;;;;;;;3.25;1.58;;;;;;;19.82;41.16;100070.22;5073876;28;20044;-73
2022/05/28 08:03:21;;;;;;;5.22;1.73;;;;;;;19.52;42.90;100074.16;5073971;28;20139;-73
2022/05/28 08:05:51;;;;;;;5.07;1.70;;;;;;;19.45;43.11;100069.34;5073460;28;20055;-73
2022/05/28 08:08:23;;;;;;;4.13;1.67;;;;;;;19.71;42.41;100076.72;5073986;28;20119;-73
2022/05/28 08:10:52;;;;;;;6.00;1.83;;;;;;;19.75;42.31;100069.13;5073095;28;20455;-73
2022/05/28 08:13:22;;;;;;;4.18;1.58;;;;;;;19.99;41.29;100074.78;5072202;28;20041;-73
2022/05/28 08:15:53;;;;;;;4.38;1.70;;;;;;;20.27;39.98;100072.78;5073178;28;20050;-73
2022/05/28 08:18:24;;;;;;;4.50;1.70;;;;;;;20.29;40.17;100068.91;5073777;28;20044;-73
2022/05/28 08:23:42;;;;;;;5.93;1.50;;;;;;;20.02;39.22;100075.31;5073302;28;20119;-73
2022/05/28 08:26:14;;;;;;;6.53;2.10;;;;;;;20.37;38.87;100078.09;5073814;28;20052;-73
2022/05/28 08:28:43;;;;;;;5.68;1.70;;;;;;;19.51;38.67;100075.16;5072886;28;20124;-74
2022/05/28 08:31:11;;;;;;;4.20;1.70;;;;;;;20.29;38.56;100077.03;5073135;28;20128;-74
2022/05/28 08:33:40;;;;;;;4.97;1.60;;;;;;;20.39;37.96;100070.66;5073129;28;20470;-73
2022/05/28 08:36:10;;;;;;;5.93;1.70;;;;;;;20.02;38.55;100067.19;5073228;28;20075;-73
2022/05/28 08:38:39;;;;;;;3.97;1.75;;;;;;;19.67;39.62;100078.03;5072981;28;20048;-74
2022/05/28 08:41:13;;;;;;;4.70;1.58;;;;;;;19.69;40.26;100081.44;5073254;28;20044;-73
2022/05/28 08:43:47;;;;;;;4.70;1.48;;;;;;;20.04;40.18;100079.69;5073266;28;20106;-73
2022/05/28 08:46:17;;;;;;;4.68;1.73;;;;;;;19.92;39.28;100082.66;5073143;28;20047;-73
2022/05/28 08:48:47;;;;;;;3.40;1.40;;;;;;;20.06;37.68;100073.13;5072781;28;20127;-73
2022/05/28 08:51:19;;;;;;;4.25;1.65;;;;;;;19.92;37.61;100071.00;5073046;28;20396;-73
2022/05/28 08:53:53;;;;;;;3.73;1.60;;;;;;;19.87;37.41;100066.03;5073048;28;20098;-75
2022/05/28 08:56:26;;;;;;;3.63;1.52;;;;;;;19.73;37.79;100088.25;5073397;28;20339;-75
2022/05/28 08:59:03;;;;;;;3.97;1.70;;;;;;;19.66;37.83;100079.03;5071781;28;20048;-72
2022/05/28 09:01:34;;;;;;;6.57;1.60;;;;;;;19.71;38.66;100083.00;5073231;28;20036;-73
2022/05/28 09:04:05;;;;;;;4.47;1.85;;;;;;;19.54;38.80;100078.38;5072212;28;20049;-74
2022/05/28 09:06:38;;;;;;;4.82;1.63;;;;;;;20.41;38.33;100066.78;5072956;28;20048;-73
2022/05/28 09:09:11;;;;;;;8.50;1.92;;;;;;;20.30;37.98;100067.03;5073107;28;20044;-74
2022/05/28 09:11:44;;;;;;;6.18;1.90;;;;;;;20.80;37.45;100063.63;5072874;28;20051;-74
2022/05/28 09:14:24;;;;;;;5.28;2.03;;;;;;;21.11;37.13;100061.19;5072726;28;20123;-73
2022/05/28 09:16:56;;;;;;;5.15;1.60;;;;;;;21.05;36.40;100056.44;5071524;28;20055;-73
2022/05/28 09:19:28;;;;;;;5.53;1.83;;;;;;;20.85;38.46;100051.28;5072752;28;20041;-73
2022/05/28 09:21:57;;;;;;;5.57;1.98;;;;;;;20.25;38.66;100047.69;5072823;28;20094;-73
2022/05/28 09:24:28;;;;;;;7.05;1.85;;;;;;;20.85;38.71;100043.16;5073042;28;20438;-73
2022/05/28 09:27:05;;;;;;;4.63;1.48;;;;;;;21.55;38.44;100059.13;5071441;28;20067;-73
2022/05/28 09:29:54;;;;;;;7.22;1.90;;;;;;;20.81;38.66;100059.91;5072009;28;20134;-73
2022/05/28 09:32:36;;;;;;;5.10;1.83;;;;;;;20.53;38.91;100051.97;5070165;28;20056;-73
2022/05/28 09:35:14;;;;;;;6.78;1.70;;;;;;;20.66;38.89;100042.56;5076685;28;20044;-72
2022/05/28 09:37:54;;;;;;;3.33;1.42;;;;;;;20.40;39.74;100042.56;5076697;28;20045;-73
2022/05/28 09:40:31;;;;;;;6.55;2.08;;;;;;;20.07;38.74;100057.72;5076874;28;20063;-76
2022/05/28 09:43:21;;;;;;;3.83;1.55;;;;;;;20.52;38.31;100049.41;5076220;28;20036;-75
2022/05/28 09:46:01;;;;;;;6.85;1.88;;;;;;;20.58;37.99;100049.63;5076533;28;20036;-75
2022/05/28 09:48:30;;;;;;;4.68;1.85;;;;;;;20.17;38.77;100061.19;5076523;28;20044;-75
2022/05/28 09:50:58;;;;;;;6.35;1.98;;;;;;;20.65;38.57;100068.78;5076218;28;20051;-75
2022/05/28 09:56:24;;;;;;;5.68;1.83;;;;;;;20.64;39.65;100063.53;5076113;28;20052;-74
2022/05/28 09:58:54;;;;;;;5.60;1.77;;;;;;;20.81;39.09;100057.19;5075116;28;20060;-75
2022/05/28 10:01:28;;;;;;;5.43;1.88;;;;;;;20.82;37.46;100056.16;5076379;28;20059;-74
2022/05/28 10:06:53;;;;;;;5.00;1.70;;;;;;;20.85;36.44;100053.16;5076075;28;20048;-74
2022/05/28 10:09:24;;;;;;;5.70;1.80;;;;;;;21.03;36.74;100045.75;5074933;28;20053;-75
2022/05/28 10:11:55;;;;;;;5.97;2.00;;;;;;;20.98;36.70;100034.56;5074300;28;20072;-72
2022/05/28 10:14:28;;;;;;;5.63;1.90;;;;;;;20.93;36.61;100053.16;5075820;28;20056;-75
2022/05/28 10:16:59;;;;;;;5.18;1.80;;;;;;;20.84;36.11;100046.88;5076030;28;20044;-75
2022/05/28 10:19:32;;;;;;;4.07;1.77;;;;;;;20.84;35.90;100043.28;5075627;28;20109;-74
2022/05/28 10:22:03;;;;;;;5.47;1.70;;;;;;;20.54;35.60;100041.97;5074438;28;20048;-75
2022/05/28 10:24:41;;;;;;;3.45;1.42;;;;;;;20.74;35.81;100042.56;5074416;28;20049;-74
2022/05/28 10:27:25;;;;;;;5.13;2.00;;;;;;;20.87;36.40;100048.41;5074387;28;20060;-75
2022/05/28 10:29:58;;;;;;;5.57;2.00;;;;;;;20.91;35.24;100038.94;5075527;28;20628;-74
2022/05/28 10:32:32;;;;;;;11.27;2.30;;;;;;;20.85;36.30;100028.75;5075427;28;20067;-74
2022/05/28 10:35:08;;;;;;;4.35;1.80;;;;;;;20.62;37.13;100038.47;5075378;28;20048;-74
2022/05/28 10:37:36;;;;;;;5.05;1.83;;;;;;;20.66;36.54;100029.03;5075880;28;20090;-74
2022/05/28 10:40:13;;;;;;;6.13;1.85;;;;;;;20.46;36.86;100026.56;5075070;28;20058;-73
2022/05/28 10:42:41;;;;;;;5.22;1.80;;;;;;;20.65;35.55;100027.28;5075748;28;20055;-74
2022/05/28 10:45:14;;;;;;;4.28;1.63;;;;;;;20.46;35.55;100033.81;5074602;28;20051;-74
2022/05/28 10:47:58;;;;;;;;;;;;;;;20.35;35.35;100026.78;5074832;28;20098;-74
2022/05/28 10:50:36;;;;;;;4.25;1.60;;;;;;;20.59;35.81;100020.69;5075700;28;19970;-73
2022/05/28 10:53:15;;;;;;;5.38;1.98;;;;;;;20.83;36.47;100030.75;5075296;28;20111;-73
2022/05/28 10:55:59;;;;;;;3.75;1.60;;;;;;;20.40;37.29;100027.16;5073816;28;20087;-78
2022/05/28 10:58:49;;;;;;;6.43;1.80;;;;;;;20.57;36.63;100010.00;5074029;28;20048;-74
2022/05/28 11:01:33;;;;;;;5.57;1.73;;;;;;;20.69;36.46;100007.84;5075244;28;20127;-75
2022/05/28 11:04:25;;;;;;;6.07;2.03;;;;;;;20.65;37.76;100021.88;5073323;28;20057;-74
2022/05/28 11:07:27;;;;;;;4.57;1.90;;;;;;;21.02;36.86;100016.09;5073719;28;20056;-74
2022/05/28 11:10:08;;;;;;;5.53;1.85;;;;;;;20.69;36.12;100013.28;5073477;28;20056;-74
2022/05/28 11:13:03;;;;;;;4.18;1.50;;;;;;;20.41;35.61;100015.31;5075108;28;20048;-74
2022/05/28 11:15:42;;;;;;;6.07;1.75;;;;;;;20.77;35.40;100016.00;5075158;28;20123;-73
2022/05/28 11:18:31;;;;;;;5.15;1.63;;;;;;;20.35;37.08;100010.50;5075048;28;20394;-74
2022/05/28 11:21:11;;;;;;;5.22;1.85;;;;;;;20.60;36.96;100013.41;5074680;28;20048;-74
2022/05/28 11:24:02;;;;;;;4.75;1.73;;;;;;;20.49;36.95;100006.41;5074866;28;20498;-73
2022/05/28 11:26:40;;;;;;;5.57;1.90;;;;;;;20.65;36.42;100002.91;5073603;28;20056;-73
2022/05/28 11:29:31;;;;;;;4.55;1.60;;;;;;;21.13;35.72;100016.66;5073195;28;20397;-73
2022/05/28 11:32:02;;;;;;;5.82;2.00;;;;;;;21.29;34.53;100005.00;5074484;28;20068;-73
2022/05/28 11:34:40;;;;;;;10.02;2.00;;;;;;;21.74;33.93;99997.41;5074726;28;20086;-73
2022/05/28 11:37:13;;;;;;;6.45;2.25;;;;;;;21.65;33.94;100004.69;5074960;28;20051;-73
2022/05/28 11:39:46;;;;;;;5.78;2.05;;;;;;;21.33;33.86;100000.09;5074731;28;20098;-74
2022/05/28 11:42:29;;;;;;;5.22;1.90;;;;;;;21.40;33.47;99992.97;5074746;28;20044;-73
2022/05/28 11:45:00;;;;;;;6.80;1.90;;;;;;;21.13;32.75;99994.94;5074059;28;20127;-73
2022/05/28 11:47:37;;;;;;;8.52;1.88;;;;;;;21.30;33.45;99989.56;5073164;28;20489;-73
2022/05/28 11:53:10;;;;;;;3.70;1.70;;;;;;;21.56;32.41;99975.84;5074063;28;20048;-73
2022/05/28 11:55:41;;;;;;;6.63;2.30;;;;;;;21.26;32.95;99982.75;5073818;28;20055;-73
2022/05/28 11:58:16;;;;;;;7.35;1.90;;;;;;;21.50;32.45;99979.25;5072729;28;20052;-73
2022/05/28 12:00:50;;;;;;;5.03;1.65;;;;;;;21.28;32.58;99986.19;5074240;28;20394;-73